Terminal Aerodrome Forecast
Issued by NWS

Home | Current Version | Previous Version | Text Only | Print | Product List | Glossary Off
Versions: 1 2 3 4 5 6 7 8 9 10 11 12

000
FTUS45 KGGW 281727
TAFGDV
TAF
KGDV 281727Z 2818/2918 33007KT P6SM BKN070
     FM282300 33006KT P6SM SCT070
     FM290700 21004KT P6SM SCT110
     FM291500 21006KT P6SM BKN035=

USA.gov is the U.S. government's official web portal to all federal, state and local government web resources and services.